Time;durP1;ratioP1;P1;durP2;ratioP2;P2;SDS_P1;SDS_P2;PMS_P1;PMS_P2;Temp;Humidity;BMP_temperature;BMP_pressure;BME280_temperature;BME280_humidity;BME280_pressure;Samples;Min_cycle;Max_cycle;Signal;HPM_P1;HPM_P2
2023/06/10 00:02:16;;;;;;;6.55;4.20;;;20.00;99.90;;;;;;5053976;28;20029;-44
2023/06/10 00:04:42;;;;;;;7.47;3.80;;;20.00;99.90;;;;;;5053866;28;20032;-46
2023/06/10 00:07:08;;;;;;;4.70;4.20;;;20.00;99.90;;;;;;5054413;28;20387;-43
2023/06/10 00:09:37;;;;;;;6.05;3.90;;;20.00;99.90;;;;;;5053925;28;20395;-45
2023/06/10 00:12:07;;;;;;;5.22;3.75;;;20.00;99.90;;;;;;5053674;28;20039;-45
2023/06/10 00:14:35;;;;;;;9.30;4.30;;;20.00;99.90;;;;;;5053788;28;20040;-44
2023/06/10 00:17:00;;;;;;;6.50;4.63;;;20.00;99.90;;;;;;5053811;28;20108;-44
2023/06/10 00:19:29;;;;;;;6.22;4.18;;;20.00;99.90;;;;;;5053695;28;20103;-45
2023/06/10 00:21:56;;;;;;;6.47;4.18;;;20.00;99.90;;;;;;5053560;28;20014;-43
2023/06/10 00:24:21;;;;;;;6.45;3.80;;;20.00;99.90;;;;;;5053495;28;20523;-43
2023/06/10 00:26:47;;;;;;;6.50;4.30;;;20.00;99.90;;;;;;5053628;28;20209;-43
2023/06/10 00:29:14;;;;;;;4.68;4.05;;;19.90;99.90;;;;;;5052648;28;20025;-43
2023/06/10 00:31:40;;;;;;;6.88;4.10;;;19.90;99.90;;;;;;5053370;28;20025;-44
2023/06/10 00:34:07;;;;;;;7.07;4.22;;;19.90;99.90;;;;;;5053565;28;20028;-43
2023/06/10 00:36:32;;;;;;;6.13;4.00;;;19.90;99.90;;;;;;5053407;28;20087;-44
2023/06/10 00:38:58;;;;;;;5.47;3.88;;;19.90;99.90;;;;;;5053235;28;20029;-43
2023/06/10 00:41:26;;;;;;;7.78;4.60;;;19.90;99.90;;;;;;5053243;28;20078;-42
2023/06/10 00:43:51;;;;;;;5.53;4.35;;;19.90;99.90;;;;;;5053376;28;20028;-44
2023/06/10 00:46:18;;;;;;;9.95;4.35;;;19.90;99.90;;;;;;5053399;28;20025;-43
2023/06/10 00:48:45;;;;;;;5.57;3.95;;;19.90;99.90;;;;;;5053354;28;20021;-44
2023/06/10 00:51:11;;;;;;;5.93;4.13;;;19.90;99.90;;;;;;5052982;28;20082;-44
2023/06/10 00:53:40;;;;;;;4.50;4.10;;;19.90;99.90;;;;;;5052950;28;20021;-44
2023/06/10 00:56:06;;;;;;;5.32;3.97;;;19.90;99.90;;;;;;5053016;28;20032;-44
2023/06/10 00:58:32;;;;;;;4.57;3.97;;;19.90;99.90;;;;;;5053049;28;20056;-43
2023/06/10 01:00:58;;;;;;;4.97;4.07;;;19.90;99.90;;;;;;5052720;28;20048;-44
2023/06/10 01:03:24;;;;;;;4.18;3.78;;;19.90;99.90;;;;;;5052955;28;20017;-44
2023/06/10 01:05:55;;;;;;;4.55;4.00;;;19.90;99.90;;;;;;5052716;28;20033;-44
2023/06/10 01:08:41;;;;;;;5.20;4.00;;;19.90;99.90;;;;;;5052856;28;20092;-44
2023/06/10 01:11:13;;;;;;;6.78;3.47;;;19.80;99.90;;;;;;5052678;28;20025;-43
2023/06/10 01:13:41;;;;;;;5.93;3.78;;;19.80;99.90;;;;;;5052838;28;20025;-43
2023/06/10 01:16:07;;;;;;;5.43;4.15;;;19.80;99.90;;;;;;5052655;28;20021;-43
2023/06/10 01:18:33;;;;;;;4.78;4.28;;;19.80;99.90;;;;;;5052502;28;20017;-43
2023/06/10 01:20:59;;;;;;;5.15;3.72;;;19.80;99.90;;;;;;5052313;28;20051;-44
2023/06/10 01:23:25;;;;;;;6.47;4.22;;;19.80;99.90;;;;;;5052531;28;20132;-44
2023/06/10 01:26:08;;;;;;;12.57;4.40;;;19.80;99.90;;;;;;5052456;28;20104;-44
2023/06/10 01:28:57;;;;;;;5.95;3.70;;;19.80;99.90;;;;;;5052472;28;20027;-44
2023/06/10 01:31:43;;;;;;;4.97;3.83;;;19.80;99.90;;;;;;5052261;28;20036;-44
2023/06/10 01:34:12;;;;;;;5.65;4.10;;;19.80;99.90;;;;;;5052386;28;20024;-44
2023/06/10 01:36:41;;;;;;;5.55;4.32;;;19.80;99.90;;;;;;5052240;28;20028;-44
2023/06/10 01:39:10;;;;;;;4.88;3.65;;;19.80;99.90;;;;;;5052183;28;20561;-44
2023/06/10 01:41:37;;;;;;;7.65;4.30;;;19.80;99.90;;;;;;5051788;28;20106;-44
2023/06/10 01:44:03;;;;;;;6.00;4.40;;;19.80;99.90;;;;;;5052165;28;20021;-43
2023/06/10 01:46:28;;;;;;;5.03;4.07;;;19.80;99.90;;;;;;5052085;28;20025;-43
2023/06/10 01:48:54;;;;;;;4.60;3.88;;;19.80;99.90;;;;;;5052120;28;20484;-43
2023/06/10 01:51:20;;;;;;;6.20;3.65;;;19.70;99.90;;;;;;5051862;28;20025;-43
2023/06/10 01:53:45;;;;;;;5.43;3.92;;;19.70;99.90;;;;;;5051972;28;20044;-43
2023/06/10 01:56:16;;;;;;;5.53;3.80;;;19.70;99.90;;;;;;5051882;28;20028;-43
2023/06/10 01:58:42;;;;;;;7.28;4.28;;;19.70;99.90;;;;;;5051854;28;20024;-44
2023/06/10 02:01:07;;;;;;;5.60;4.35;;;19.70;99.90;;;;;;5051653;28;20021;-45
2023/06/10 02:03:33;;;;;;;6.80;3.88;;;19.70;99.90;;;;;;5051889;28;20028;-44
2023/06/10 02:05:59;;;;;;;4.30;3.80;;;19.70;99.90;;;;;;5051591;28;20037;-43
2023/06/10 02:08:24;;;;;;;4.95;3.97;;;19.70;99.90;;;;;;5051579;28;20491;-44
2023/06/10 02:10:50;;;;;;;4.88;3.75;;;19.70;99.90;;;;;;5051452;28;20049;-45
2023/06/10 02:13:16;;;;;;;4.97;3.60;;;19.70;99.90;;;;;;5051654;28;20028;-46
2023/06/10 02:15:41;;;;;;;4.78;4.07;;;19.70;99.90;;;;;;5051598;28;20203;-44
2023/06/10 02:18:07;;;;;;;4.97;4.00;;;19.70;99.90;;;;;;5051649;28;20055;-43
2023/06/10 02:20:33;;;;;;;5.97;4.20;;;19.60;99.90;;;;;;5051678;28;20025;-43
2023/06/10 02:22:59;;;;;;;6.28;3.83;;;19.60;99.90;;;;;;5051384;28;20027;-43
2023/06/10 02:25:25;;;;;;;5.68;4.20;;;19.70;99.90;;;;;;5051463;28;20464;-44
2023/06/10 02:27:50;;;;;;;5.30;4.22;;;19.60;99.90;;;;;;5051552;28;20029;-43
2023/06/10 02:30:16;;;;;;;5.78;3.97;;;19.60;99.90;;;;;;5051195;28;20123;-43
2023/06/10 02:32:42;;;;;;;8.23;4.05;;;19.60;99.90;;;;;;5051359;28;20416;-44
2023/06/10 02:35:07;;;;;;;4.05;3.50;;;19.60;99.90;;;;;;5051136;28;20060;-44
2023/06/10 02:37:33;;;;;;;5.28;4.35;;;19.60;99.90;;;;;;5051237;28;20488;-44
2023/06/10 02:39:59;;;;;;;6.53;4.00;;;19.60;99.90;;;;;;5051024;28;20025;-46
2023/06/10 02:42:24;;;;;;;4.88;3.88;;;19.60;99.90;;;;;;5049936;28;20031;-43
2023/06/10 02:44:50;;;;;;;6.55;4.22;;;19.60;99.90;;;;;;5051186;28;20025;-44
2023/06/10 02:47:16;;;;;;;5.13;3.97;;;19.60;99.90;;;;;;5051175;28;20045;-43
2023/06/10 02:49:42;;;;;;;5.55;4.00;;;19.60;99.90;;;;;;5051111;28;20029;-43
2023/06/10 02:52:08;;;;;;;8.38;4.10;;;19.60;99.90;;;;;;5050402;28;20392;-43
2023/06/10 02:54:33;;;;;;;4.97;4.07;;;19.60;99.90;;;;;;5049759;28;20595;-44
2023/06/10 02:56:59;;;;;;;4.53;4.10;;;19.60;99.90;;;;;;5051186;28;20025;-44
2023/06/10 02:59:26;;;;;;;4.85;4.05;;;19.60;99.90;;;;;;5051032;28;20025;-43
2023/06/10 03:01:52;;;;;;;5.07;3.75;;;19.60;99.90;;;;;;5050853;28;20032;-44
2023/06/10 03:04:18;;;;;;;5.25;3.70;;;19.50;99.90;;;;;;5051011;28;20017;-43
2023/06/10 03:06:45;;;;;;;5.55;4.40;;;19.60;99.90;;;;;;5051240;28;20037;-44
2023/06/10 03:09:11;;;;;;;6.35;4.05;;;19.60;99.90;;;;;;5050924;28;20028;-45
2023/06/10 03:11:36;;;;;;;5.82;4.13;;;19.50;99.90;;;;;;5050745;28;20032;-44
2023/06/10 03:14:02;;;;;;;4.45;4.05;;;19.50;99.90;;;;;;5050960;28;20087;-43
2023/06/10 03:16:30;;;;;;;4.82;4.18;;;19.50;99.90;;;;;;5050848;28;20082;-43
2023/06/10 03:18:55;;;;;;;5.47;4.07;;;19.50;99.90;;;;;;5049497;28;20033;-44
2023/06/10 03:21:21;;;;;;;6.60;4.55;;;19.50;99.90;;;;;;5050566;28;20369;-44
2023/06/10 03:23:47;;;;;;;6.95;4.47;;;19.50;99.90;;;;;;5050872;28;20438;-44
2023/06/10 03:26:15;;;;;;;4.55;3.85;;;19.50;99.90;;;;;;5050709;28;20400;-43
2023/06/10 03:28:40;;;;;;;6.40;4.32;;;19.50;99.90;;;;;;5050912;28;20076;-43
2023/06/10 03:31:06;;;;;;;5.00;4.03;;;19.50;99.90;;;;;;5050592;28;20459;-44
2023/06/10 03:33:32;;;;;;;5.57;4.45;;;19.50;99.90;;;;;;5050729;28;20027;-43
2023/06/10 03:35:58;;;;;;;4.95;4.18;;;19.50;99.90;;;;;;5050586;28;20063;-44
2023/06/10 03:38:24;;;;;;;4.72;4.00;;;19.50;99.90;;;;;;5050685;28;20365;-44
2023/06/10 03:40:50;;;;;;;9.18;4.47;;;19.50;99.90;;;;;;5050396;28;20051;-43
2023/06/10 03:43:16;;;;;;;4.57;3.80;;;19.50;99.90;;;;;;5049279;28;20025;-43
2023/06/10 03:45:41;;;;;;;7.53;4.32;;;19.50;99.90;;;;;;5050547;28;20087;-43
2023/06/10 03:48:08;;;;;;;5.93;4.05;;;19.40;99.90;;;;;;5050538;28;20025;-43
2023/06/10 03:50:34;;;;;;;6.63;4.05;;;19.50;99.90;;;;;;5050254;28;20395;-43
2023/06/10 03:53:00;;;;;;;5.13;3.60;;;19.40;99.90;;;;;;5050587;28;20029;-44
2023/06/10 03:55:26;;;;;;;5.28;3.90;;;19.40;99.90;;;;;;5050474;28;20112;-44
2023/06/10 03:57:51;;;;;;;5.22;3.95;;;19.40;99.90;;;;;;5050493;28;20028;-43
2023/06/10 04:00:21;;;;;;;6.38;3.92;;;19.40;99.90;;;;;;5050337;28;20025;-44
2023/06/10 04:02:48;;;;;;;9.38;4.35;;;19.40;99.90;;;;;;5050851;28;20361;-44
2023/06/10 04:05:15;;;;;;;5.70;4.30;;;19.40;99.90;;;;;;5051864;28;20476;-44
2023/06/10 04:07:44;;;;;;;5.93;4.20;;;19.40;99.90;;;;;;5054161;28;20033;-43
2023/06/10 04:10:13;;;;;;;6.85;4.03;;;19.40;99.90;;;;;;5053814;28;20059;-43
2023/06/10 04:12:39;;;;;;;7.20;4.10;;;19.40;99.90;;;;;;5054004;28;20052;-44
2023/06/10 04:15:05;;;;;;;5.25;4.25;;;19.40;99.90;;;;;;5053848;28;20079;-43
2023/06/10 04:17:31;;;;;;;5.82;4.50;;;19.40;99.90;;;;;;5053677;28;20040;-43
2023/06/10 04:20:00;;;;;;;4.80;4.18;;;19.40;99.90;;;;;;5053627;28;20043;-45
2023/06/10 04:22:26;;;;;;;4.85;3.80;;;19.40;99.90;;;;;;5053919;28;20108;-43
2023/06/10 04:24:52;;;;;;;4.82;4.20;;;19.40;99.90;;;;;;5053608;28;20117;-44
2023/06/10 04:27:18;;;;;;;5.05;4.00;;;19.40;99.90;;;;;;5053626;28;20028;-43
2023/06/10 04:29:44;;;;;;;4.47;4.07;;;19.40;99.90;;;;;;5053627;28;20025;-43
2023/06/10 04:32:09;;;;;;;7.68;4.47;;;19.40;99.90;;;;;;5053311;28;20517;-43
2023/06/10 04:34:36;;;;;;;5.25;3.95;;;19.30;99.90;;;;;;5053641;28;20029;-43
2023/06/10 04:37:01;;;;;;;7.40;4.20;;;19.30;99.90;;;;;;5053463;28;20029;-43
2023/06/10 04:39:27;;;;;;;8.88;3.90;;;19.40;99.90;;;;;;5053505;28;20445;-44
2023/06/10 04:41:52;;;;;;;5.97;4.40;;;19.30;99.90;;;;;;5053178;28;20032;-44
2023/06/10 04:44:18;;;;;;;8.23;4.38;;;19.40;99.90;;;;;;5053329;28;20558;-43
2023/06/10 04:46:45;;;;;;;6.93;4.53;;;19.40;99.90;;;;;;5053198;28;20028;-43
2023/06/10 04:49:10;;;;;;;6.38;3.97;;;19.40;99.90;;;;;;5053152;28;20053;-43
2023/06/10 04:51:37;;;;;;;4.95;4.13;;;19.30;99.90;;;;;;5053008;28;20476;-44
2023/06/10 04:54:03;;;;;;;5.32;4.35;;;19.40;99.90;;;;;;5053174;28;20433;-43
2023/06/10 04:56:32;;;;;;;5.03;4.03;;;19.40;99.90;;;;;;5052984;28;20098;-43
2023/06/10 04:58:58;;;;;;;7.25;4.43;;;19.40;99.90;;;;;;5053035;28;20025;-43
2023/06/10 05:01:24;;;;;;;10.63;4.32;;;19.40;99.90;;;;;;5052602;28;20024;-43
2023/06/10 05:03:50;;;;;;;4.95;3.88;;;19.40;99.90;;;;;;5053027;28;20024;-42
2023/06/10 05:06:16;;;;;;;5.32;3.80;;;19.40;99.90;;;;;;5073686;23;20044;-41
2023/06/10 05:08:41;;;;;;;7.90;3.97;;;19.40;99.90;;;;;;5052543;28;20387;-43
2023/06/10 05:11:07;;;;;;;8.02;4.55;;;19.40;99.90;;;;;;5052843;28;20031;-41
2023/06/10 05:13:33;;;;;;;4.68;4.00;;;19.40;99.90;;;;;;5052932;28;20032;-41
2023/06/10 05:15:58;;;;;;;9.20;4.05;;;19.40;99.90;;;;;;5052560;28;20025;-41
2023/06/10 05:18:24;;;;;;;6.20;4.20;;;19.40;99.90;;;;;;5052867;28;20040;-41
2023/06/10 05:20:50;;;;;;;4.55;3.92;;;19.40;99.90;;;;;;5051223;28;20060;-43
2023/06/10 05:23:16;;;;;;;7.80;4.40;;;19.40;99.90;;;;;;5053126;28;20060;-42
2023/06/10 05:25:42;;;;;;;5.22;4.00;;;19.40;99.90;;;;;;5052557;28;20040;-41
2023/06/10 05:28:09;;;;;;;6.22;4.25;;;19.40;99.90;;;;;;5052481;28;20492;-42
2023/06/10 05:30:36;;;;;;;8.73;4.13;;;19.40;99.90;;;;;;5052326;28;20028;-41
2023/06/10 05:33:02;;;;;;;5.00;4.03;;;19.40;99.90;;;;;;5052460;28;20040;-41
2023/06/10 05:35:28;;;;;;;6.38;4.60;;;19.40;99.90;;;;;;5052366;28;20033;-41
2023/06/10 05:37:53;;;;;;;4.78;4.28;;;19.40;99.90;;;;;;5052353;28;20127;-41
2023/06/10 05:40:19;;;;;;;5.40;4.00;;;19.40;99.90;;;;;;5052033;28;20017;-41
2023/06/10 05:42:44;;;;;;;7.90;4.68;;;19.50;99.90;;;;;;5052167;28;20079;-41
2023/06/10 05:45:10;;;;;;;6.32;4.25;;;19.50;99.90;;;;;;5052119;28;20025;-41
2023/06/10 05:47:36;;;;;;;5.07;4.10;;;19.50;99.90;;;;;;5052102;28;20468;-42
2023/06/10 05:50:02;;;;;;;5.50;4.18;;;19.50;99.90;;;;;;5051994;28;20029;-41
2023/06/10 05:52:28;;;;;;;5.82;4.30;;;19.50;99.90;;;;;;5052202;28;20021;-41
2023/06/10 05:54:56;;;;;;;7.63;4.40;;;19.50;99.90;;;;;;5052028;28;20461;-41
2023/06/10 05:57:22;;;;;;;11.80;4.50;;;19.50;99.90;;;;;;5051868;28;20025;-41
2023/06/10 05:59:48;;;;;;;6.43;4.10;;;19.50;99.90;;;;;;5051939;28;20364;-41
2023/06/10 06:02:13;;;;;;;5.50;4.00;;;19.60;99.90;;;;;;5051690;28;20025;-42
2023/06/10 06:04:39;;;;;;;7.82;4.15;;;19.60;99.90;;;;;;5052156;28;20021;-41
2023/06/10 06:07:05;;;;;;;6.07;4.45;;;19.60;99.90;;;;;;5051638;28;20431;-41
2023/06/10 06:09:31;;;;;;;4.70;4.07;;;19.60;99.90;;;;;;5052158;28;20025;-41
2023/06/10 06:11:56;;;;;;;5.70;4.25;;;19.60;99.90;;;;;;5051459;28;20107;-40
2023/06/10 06:14:22;;;;;;;5.45;4.32;;;19.60;99.90;;;;;;5051959;28;20024;-41
2023/06/10 06:16:48;;;;;;;6.45;4.45;;;19.60;99.90;;;;;;5051535;28;20033;-41
2023/06/10 06:19:13;;;;;;;4.28;3.88;;;19.60;99.90;;;;;;5052233;28;20025;-40
2023/06/10 06:21:39;;;;;;;4.47;4.07;;;19.70;99.90;;;;;;5051381;28;20025;-41
2023/06/10 06:24:05;;;;;;;4.85;3.97;;;19.70;99.90;;;;;;5051488;28;20024;-41
2023/06/10 06:26:31;;;;;;;4.88;3.80;;;19.70;99.90;;;;;;5051297;28;20506;-41
2023/06/10 06:28:56;;;;;;;5.20;4.22;;;19.60;99.90;;;;;;5051008;28;20029;-41
2023/06/10 06:31:22;;;;;;;5.88;4.03;;;19.70;99.90;;;;;;5051172;28;20060;-41
2023/06/10 06:33:48;;;;;;;4.80;3.95;;;19.70;99.90;;;;;;5051403;28;20021;-41
2023/06/10 06:36:13;;;;;;;4.70;4.15;;;19.60;99.90;;;;;;5051268;28;20032;-41
2023/06/10 06:38:39;;;;;;;5.15;4.13;;;19.60;99.90;;;;;;5051445;28;20095;-41
2023/06/10 06:41:06;;;;;;;5.97;4.10;;;19.60;99.90;;;;;;5050946;28;20096;-41
2023/06/10 06:43:32;;;;;;;4.68;3.90;;;19.70;99.90;;;;;;5051320;28;20025;-41
2023/06/10 06:45:58;;;;;;;7.80;4.10;;;19.70;99.90;;;;;;5051171;28;20427;-41
2023/06/10 06:48:24;;;;;;;4.03;3.70;;;19.70;99.90;;;;;;5051212;28;20486;-41
2023/06/10 06:50:50;;;;;;;4.22;3.72;;;19.70;99.90;;;;;;5050939;28;20087;-41
2023/06/10 06:53:15;;;;;;;5.85;3.88;;;19.70;99.90;;;;;;5051587;28;20029;-42
2023/06/10 06:55:41;;;;;;;4.68;3.97;;;19.70;99.90;;;;;;5050996;28;20373;-41
2023/06/10 06:58:07;;;;;;;4.30;3.72;;;19.70;99.90;;;;;;5051098;28;20036;-41
2023/06/10 07:00:32;;;;;;;5.50;3.92;;;19.70;99.90;;;;;;5050842;28;20096;-40
2023/06/10 07:02:58;;;;;;;4.63;3.83;;;19.70;99.90;;;;;;5051293;28;20425;-41
2023/06/10 07:05:28;;;;;;;4.15;3.70;;;19.70;99.90;;;;;;5051204;28;20036;-40
2023/06/10 07:07:55;;;;;;;4.07;3.50;;;19.70;99.90;;;;;;5051049;28;20029;-41
2023/06/10 07:10:23;;;;;;;5.40;3.80;;;19.70;99.90;;;;;;5051239;28;20108;-41
2023/06/10 07:12:48;;;;;;;4.82;4.03;;;19.70;99.90;;;;;;5051336;28;20029;-41
2023/06/10 07:15:14;;;;;;;4.65;3.80;;;19.70;99.90;;;;;;5050803;28;20074;-40
2023/06/10 07:17:40;;;;;;;4.53;3.88;;;19.70;99.90;;;;;;5050961;28;20032;-41
2023/06/10 07:20:06;;;;;;;4.25;3.75;;;19.80;99.90;;;;;;5050808;28;20388;-40
2023/06/10 07:22:31;;;;;;;3.88;3.47;;;19.80;99.90;;;;;;5051602;28;20029;-41
2023/06/10 07:24:58;;;;;;;4.60;3.85;;;19.70;99.90;;;;;;5050711;28;20033;-40
2023/06/10 07:27:23;;;;;;;5.43;4.10;;;19.80;99.90;;;;;;5050836;28;20102;-42
2023/06/10 07:29:49;;;;;;;4.15;3.67;;;19.80;99.90;;;;;;5050786;28;20064;-41
2023/06/10 07:32:15;;;;;;;4.32;3.90;;;19.80;99.90;;;;;;5050697;28;20051;-41
2023/06/10 07:34:40;;;;;;;4.57;3.90;;;19.80;99.90;;;;;;5050775;28;20067;-40
2023/06/10 07:37:06;;;;;;;4.28;3.88;;;19.80;99.90;;;;;;5050630;28;20017;-41
2023/06/10 07:39:31;;;;;;;4.90;3.90;;;19.80;99.90;;;;;;5052758;28;20033;-40
2023/06/10 07:41:57;;;;;;;4.05;3.60;;;19.80;99.90;;;;;;5054431;28;20033;-42
2023/06/10 07:44:23;;;;;;;4.53;4.10;;;19.80;99.90;;;;;;5054531;28;20384;-41
2023/06/10 07:46:49;;;;;;;4.88;4.25;;;19.80;99.90;;;;;;5054910;28;20025;-41
2023/06/10 07:49:15;;;;;;;4.72;3.97;;;19.80;99.90;;;;;;5054447;28;20044;-41
2023/06/10 07:51:40;;;;;;;4.00;3.60;;;19.80;99.90;;;;;;5054233;28;20032;-41
2023/06/10 07:54:06;;;;;;;5.30;3.90;;;19.80;99.90;;;;;;5054326;28;20033;-41
2023/06/10 07:56:32;;;;;;;3.83;3.53;;;19.80;99.90;;;;;;5054254;28;20459;-41
2023/06/10 07:58:57;;;;;;;4.47;3.90;;;19.90;99.90;;;;;;5052805;28;20029;-43
2023/06/10 08:01:24;;;;;;;6.45;3.90;;;19.80;99.90;;;;;;5052662;28;20040;-41
2023/06/10 08:03:50;;;;;;;4.70;3.83;;;19.90;99.90;;;;;;5054150;28;20074;-41
2023/06/10 08:06:17;;;;;;;3.95;3.55;;;19.90;99.90;;;;;;5053893;28;20029;-40
2023/06/10 08:08:43;;;;;;;4.97;3.83;;;19.90;99.90;;;;;;5053980;28;20021;-42
2023/06/10 08:11:11;;;;;;;4.97;4.00;;;19.90;99.90;;;;;;5053806;28;20025;-41
2023/06/10 08:13:37;;;;;;;4.30;3.75;;;19.90;99.90;;;;;;5054389;28;20122;-40
2023/06/10 08:16:03;;;;;;;4.35;3.85;;;19.90;99.90;;;;;;5053879;28;20475;-41
2023/06/10 08:18:28;;;;;;;4.07;3.33;;;19.90;99.90;;;;;;5053933;28;20396;-41
2023/06/10 08:20:54;;;;;;;4.85;3.70;;;19.90;99.90;;;;;;5053543;28;20028;-41
2023/06/10 08:23:20;;;;;;;4.85;4.03;;;19.90;99.90;;;;;;5053954;28;20021;-41
2023/06/10 08:25:46;;;;;;;4.60;4.13;;;19.90;99.90;;;;;;5053664;28;20024;-42
2023/06/10 08:28:12;;;;;;;4.60;4.20;;;19.90;99.90;;;;;;5053766;28;20021;-41
2023/06/10 08:30:37;;;;;;;5.72;3.65;;;19.90;99.90;;;;;;5053568;28;20036;-41
2023/06/10 08:33:03;;;;;;;4.82;3.83;;;20.00;99.90;;;;;;5053610;28;20048;-43
2023/06/10 08:35:29;;;;;;;3.97;3.63;;;20.00;99.90;;;;;;5053830;28;20055;-41
2023/06/10 08:37:54;;;;;;;4.55;3.88;;;20.00;99.90;;;;;;5053434;28;20032;-42
2023/06/10 08:40:20;;;;;;;5.03;3.80;;;19.90;99.90;;;;;;5053218;28;20074;-43
2023/06/10 08:42:53;;;;;;;4.50;3.70;;;20.00;99.90;;;;;;5053381;28;20395;-41
2023/06/10 08:45:22;;;;;;;4.55;3.85;;;20.00;99.90;;;;;;5053396;28;20017;-41
2023/06/10 08:47:53;;;;;;;3.92;3.53;;;20.00;99.90;;;;;;5053373;28;20025;-40
2023/06/10 08:50:19;;;;;;;4.90;3.63;;;20.00;99.90;;;;;;5052541;28;20059;-41
2023/06/10 08:52:48;;;;;;;4.68;3.67;;;20.00;99.90;;;;;;5053495;28;20104;-40
2023/06/10 08:55:44;;;;;;;4.68;4.18;;;20.00;99.90;;;;;;5053144;28;20031;-42
2023/06/10 08:58:10;;;;;;;3.92;3.58;;;20.00;99.90;;;;;;5040678;28;20041;-41
2023/06/10 09:00:37;;;;;;;4.88;3.90;;;20.00;99.90;;;;;;5052862;28;20466;-40
2023/06/10 09:03:05;;;;;;;4.53;3.80;;;20.00;99.90;;;;;;5053173;28;20096;-41
2023/06/10 09:05:34;;;;;;;4.15;3.58;;;20.10;99.90;;;;;;5052773;28;20510;-40
2023/06/10 09:08:00;;;;;;;4.53;4.07;;;20.10;99.90;;;;;;5052904;28;20025;-42
2023/06/10 09:10:27;;;;;;;5.05;4.00;;;20.10;99.90;;;;;;5052654;28;20028;-40
2023/06/10 09:12:53;;;;;;;3.90;3.50;;;20.20;99.90;;;;;;5052878;28;20033;-41
2023/06/10 09:15:18;;;;;;;4.68;3.97;;;20.30;99.90;;;;;;5051345;28;20036;-40
2023/06/10 09:17:44;;;;;;;5.95;3.90;;;20.30;99.90;;;;;;5052801;28;20108;-42
2023/06/10 09:20:11;;;;;;;4.15;3.35;;;20.40;99.90;;;;;;5052471;28;20471;-40
2023/06/10 09:22:37;;;;;;;4.95;3.80;;;20.40;99.90;;;;;;5052895;28;20068;-40
2023/06/10 09:25:05;;;;;;;6.00;3.88;;;20.40;99.90;;;;;;5052846;28;20031;-42
2023/06/10 09:27:32;;;;;;;4.15;3.30;;;20.40;99.90;;;;;;5052525;28;20021;-42
2023/06/10 09:29:58;;;;;;;4.22;3.40;;;20.40;99.90;;;;;;5052350;28;20032;-40
2023/06/10 09:32:25;;;;;;;4.80;3.88;;;20.40;99.90;;;;;;5053019;28;20063;-41
2023/06/10 09:34:51;;;;;;;5.05;3.88;;;20.50;99.90;;;;;;5052428;28;20032;-41
2023/06/10 09:37:23;;;;;;;5.63;3.83;;;20.40;99.90;;;;;;5052263;28;20021;-42
2023/06/10 09:40:08;;;;;;;4.55;3.80;;;20.50;99.90;;;;;;5052205;28;20025;-41
2023/06/10 09:42:35;;;;;;;4.80;3.78;;;20.50;99.90;;;;;;5052335;28;20060;-41
2023/06/10 09:45:02;;;;;;;4.32;3.63;;;20.50;99.90;;;;;;5052125;28;20025;-41
2023/06/10 09:47:28;;;;;;;6.65;3.42;;;20.50;99.90;;;;;;5052460;28;20399;-41
2023/06/10 09:49:54;;;;;;;5.03;3.35;;;20.50;99.90;;;;;;5052743;28;20029;-41
2023/06/10 09:52:28;;;;;;;4.28;3.60;;;20.50;99.90;;;;;;5052249;28;20074;-42
2023/06/10 09:54:54;;;;;;;;;;;20.40;99.90;;;;;;5052344;28;20075;-40
2023/06/10 09:57:21;;;;;;;5.03;3.70;;;20.50;99.90;;;;;;5052001;28;19909;-41
2023/06/10 09:59:47;;;;;;;4.07;3.03;;;20.50;99.90;;;;;;5051877;28;20028;-40
2023/06/10 10:02:16;;;;;;;3.75;3.30;;;20.50;99.90;;;;;;5051828;28;20079;-42
2023/06/10 10:04:44;;;;;;;4.05;3.50;;;20.50;99.90;;;;;;5051855;28;20204;-41
2023/06/10 10:07:10;;;;;;;4.85;3.30;;;20.60;99.90;;;;;;5051545;28;20033;-41
2023/06/10 10:09:40;;;;;;;3.92;3.50;;;20.60;99.90;;;;;;5051949;28;20056;-41
2023/06/10 10:12:11;;;;;;;3.80;3.33;;;20.60;99.90;;;;;;5051554;28;20491;-41
2023/06/10 10:14:38;;;;;;;5.50;3.50;;;20.60;99.90;;;;;;5051977;28;20033;-42
2023/06/10 10:17:10;;;;;;;4.53;3.38;;;20.60;99.90;;;;;;5051766;28;20021;-41
2023/06/10 10:19:53;;;;;;;3.92;3.45;;;20.60;99.90;;;;;;5051502;28;20035;-41
2023/06/10 10:22:24;;;;;;;5.03;3.88;;;20.60;99.90;;;;;;5051519;28;20499;-41
2023/06/10 10:24:53;;;;;;;3.50;3.20;;;20.60;99.90;;;;;;5051798;28;20075;-41
2023/06/10 10:27:38;;;;;;;4.03;3.42;;;20.70;99.90;;;;;;5051694;28;20116;-40
2023/06/10 10:30:08;;;;;;;4.95;3.28;;;20.70;99.90;;;;;;5052389;28;20491;-40
2023/06/10 10:32:40;;;;;;;3.80;3.00;;;20.70;99.90;;;;;;5051440;28;20032;-41
2023/06/10 10:35:16;;;;;;;4.38;3.65;;;20.70;99.90;;;;;;5051335;28;20021;-42
2023/06/10 10:37:42;;;;;;;5.35;3.30;;;20.70;99.90;;;;;;5051329;28;20024;-41
2023/06/10 10:40:08;;;;;;;4.25;3.50;;;20.70;99.90;;;;;;5050945;28;20029;-41
2023/06/10 10:42:35;;;;;;;4.53;3.58;;;20.70;99.90;;;;;;5051321;28;20017;-41
2023/06/10 10:45:01;;;;;;;4.97;3.30;;;20.70;99.90;;;;;;5051128;28;20021;-41
2023/06/10 10:47:30;;;;;;;4.15;3.33;;;20.70;99.90;;;;;;5051636;28;20491;-41
2023/06/10 10:49:59;;;;;;;5.00;3.50;;;20.70;99.90;;;;;;5051162;28;20031;-42
2023/06/10 10:52:46;;;;;;;4.63;3.67;;;20.70;99.90;;;;;;5051290;28;20075;-41
2023/06/10 10:55:15;;;;;;;4.00;3.13;;;20.70;99.90;;;;;;5050972;28;20031;-41
2023/06/10 10:57:40;;;;;;;3.85;3.45;;;20.70;99.90;;;;;;5051138;28;20028;-40
2023/06/10 11:00:07;;;;;;;3.50;3.20;;;20.70;99.90;;;;;;5051001;28;20026;-41
2023/06/10 11:02:34;;;;;;;4.20;3.35;;;20.70;99.90;;;;;;5051216;28;20033;-42
2023/06/10 11:05:00;;;;;;;3.80;3.42;;;20.80;99.90;;;;;;5051257;28;20021;-41
2023/06/10 11:07:26;;;;;;;3.50;3.20;;;20.80;99.90;;;;;;5050778;28;20033;-40
2023/06/10 11:10:12;;;;;;;3.88;3.47;;;20.80;99.90;;;;;;5050993;28;20083;-40
2023/06/10 11:12:51;;;;;;;5.85;3.80;;;20.80;99.90;;;;;;5050979;28;20041;-40
2023/06/10 11:15:27;;;;;;;3.70;3.20;;;20.80;99.90;;;;;;5054518;28;20025;-40
2023/06/10 11:18:14;;;;;;;5.13;3.05;;;21.20;99.90;;;;;;5055315;28;20488;-42
2023/06/10 11:20:49;;;;;;;3.97;3.08;;;21.20;99.90;;;;;;5055838;28;20017;-39
2023/06/10 11:23:44;;;;;;;4.95;3.17;;;21.20;99.90;;;;;;5055308;28;20029;-41
2023/06/10 11:26:32;;;;;;;3.75;3.40;;;21.10;99.90;;;;;;5041893;28;20492;-39
2023/06/10 11:28:57;;;;;;;5.00;3.25;;;21.10;99.90;;;;;;5055154;28;20079;-40
2023/06/10 11:31:30;;;;;;;3.85;3.30;;;21.10;99.90;;;;;;5055062;28;20054;-39
2023/06/10 11:34:04;;;;;;;4.25;3.58;;;21.10;99.90;;;;;;5054768;28;20391;-40
2023/06/10 11:36:30;;;;;;;;;;;21.10;99.90;;;;;;5055897;28;20057;-40
2023/06/10 11:38:58;;;;;;;4.53;3.17;;;21.10;99.90;;;;;;5055779;28;19955;-40
2023/06/10 11:41:28;;;;;;;4.40;3.10;;;21.10;99.90;;;;;;5055199;28;20036;-40
2023/06/10 11:43:58;;;;;;;5.25;3.25;;;21.10;99.90;;;;;;5055813;28;20043;-39
2023/06/10 11:46:27;;;;;;;3.55;3.00;;;21.10;99.90;;;;;;5054673;28;20017;-42
2023/06/10 11:48:55;;;;;;;3.72;3.17;;;21.20;99.90;;;;;;5054567;28;20360;-39
2023/06/10 11:51:21;;;;;;;4.65;3.58;;;21.20;99.90;;;;;;5054296;28;20021;-39
2023/06/10 11:53:47;;;;;;;3.65;3.00;;;21.30;99.90;;;;;;5054273;28;20106;-40
2023/06/10 11:56:13;;;;;;;9.68;3.30;;;21.30;99.90;;;;;;5054574;28;20091;-41
2023/06/10 11:58:44;;;;;;;5.10;3.63;;;21.40;99.90;;;;;;5054756;28;20036;-41
2023/06/10 12:01:10;;;;;;;4.55;3.65;;;21.50;99.90;;;;;;5054238;28;20043;-41
2023/06/10 12:03:37;;;;;;;4.38;3.53;;;21.40;99.90;;;;;;5054220;28;20028;-41
2023/06/10 12:06:06;;;;;;;3.75;3.30;;;21.40;99.90;;;;;;5053991;28;20032;-40
2023/06/10 12:08:33;;;;;;;4.90;3.65;;;21.40;99.90;;;;;;5054035;28;20020;-40
2023/06/10 12:10:59;;;;;;;4.05;3.17;;;21.40;99.90;;;;;;5054037;28;20029;-40
2023/06/10 12:13:28;;;;;;;3.60;3.20;;;21.40;99.90;;;;;;5054359;28;20051;-40
2023/06/10 12:15:54;;;;;;;5.03;3.70;;;21.50;99.90;;;;;;5054192;28;20488;-40
2023/06/10 12:18:22;;;;;;;4.53;3.28;;;21.50;99.90;;;;;;5054008;28;20104;-39
2023/06/10 12:20:48;;;;;;;3.50;3.10;;;21.50;99.90;;;;;;5053840;28;20025;-40
2023/06/10 12:23:15;;;;;;;4.22;3.53;;;21.40;99.90;;;;;;5053848;28;20017;-42
2023/06/10 12:25:51;;;;;;;4.90;3.25;;;21.40;99.90;;;;;;5053291;28;20082;-41
2023/06/10 12:28:20;;;;;;;3.95;3.20;;;21.40;99.90;;;;;;5054758;28;20384;-40
2023/06/10 12:30:46;;;;;;;3.85;3.38;;;21.40;99.90;;;;;;5053499;28;20028;-40
2023/06/10 12:33:19;;;;;;;3.85;3.28;;;21.40;99.90;;;;;;5054635;28;20025;-40
2023/06/10 12:35:52;;;;;;;4.32;3.55;;;21.50;99.90;;;;;;5053732;28;20025;-40
2023/06/10 12:38:28;;;;;;;4.15;3.55;;;21.40;99.90;;;;;;5053606;28;20032;-39
2023/06/10 12:40:54;;;;;;;4.15;3.20;;;21.40;99.90;;;;;;5053449;28;20029;-41
2023/06/10 12:43:25;;;;;;;3.90;3.42;;;21.40;99.90;;;;;;5053725;28;20425;-41
2023/06/10 12:45:51;;;;;;;6.03;3.75;;;21.30;99.90;;;;;;5054046;28;20025;-39
2023/06/10 12:48:24;;;;;;;4.40;3.22;;;21.30;99.90;;;;;;5053755;28;20083;-40
2023/06/10 12:50:58;;;;;;;3.97;3.55;;;21.30;99.90;;;;;;5053345;28;20021;-40